Main page
METAR-TAF:

METAR-TAF

Airports :

Nanning Wuxu International Airport

Nanning, China

latitude: 22-49N, longitude: 108-21E, elevation: 73 m

Current weather observation

The report was made 1 hour and 1 minutes ago, at 22:00 UTC
Wind 6 kt from the Northeast
Temperature 10°C
Humidity 93%
Pressure 1026 hPa
Visibility: 2800 m
Few clouds at a height of 300 ft
Scattered clouds at a height of 600 ft
Overcast at a height of 2600 ft
light rain, mist

METAR: ZGNN 142200Z 04003MPS 2800 -RA BR FEW003 SCT006 OVC026 10/09 Q1026 NOSIG

Time: 07:01 (23:01 UTC)

Forecast

The report was made 7 hours and 56 minutes ago, at 15:05 UTC
Forecast valid from 14 at 18 UTC to 15 at 18 UTC
Wind 6 kt from the Northeast
Visibility: 5000 m
Scattered clouds at a height of 1000 ft
Broken clouds at a height of 3000 ft
mist

TAF: ZGNN 141505Z 1418/1518 05003MPS 5000 BR SCT010 BKN030 TX15/1507Z TN09/1422Z

Weather observations and forecasts of more than 4000 airports (METAR and TAF reports).

The available stations are represented by yellow and red dots on the map.

Hover mouse over dot to see the name of the station.

Then click to see weather observations and forecasts.

To change the map : click on the green buttons with a black cross to zoom in, on the green button with a dash to zoom out, or on the green arrows for adjacent maps.


METAR-TAF: